Terminal Aerodrome Forecast
Issued by NWS Glasgow, MT

Home | Current Version | Previous Version | Text Only | Print | Product List | Glossary On
Versions: 1 2 3 4 5 6 7 8 9 10 11 12 13 14
000
FTUS45 KGGW 211700 RRA
TAFGGW
TAF
KGGW 211744Z 2118/2218 12011KT P6SM -RA BKN090
     FM220000 30012KT P6SM BKN015 OVC025
     FM220600 31015KT 4SM -SN OVC030=

USA.gov is the U.S. government's official web portal to all federal, state and local government web resources and services.